sensor_id;sensor_type;location;lat;lon;timestamp;P1;durP1;ratioP1;P2;durP2;ratioP2
66384;SDS011;53426;55.872;37.462;2023-02-03T00:02:08;37.28;;;19.45;;
66384;SDS011;53426;55.872;37.462;2023-02-03T00:04:39;41.83;;;20.33;;
66384;SDS011;53426;55.872;37.462;2023-02-03T00:07:05;35.78;;;18.65;;
66384;SDS011;53426;55.872;37.462;2023-02-03T00:09:32;38.65;;;20.67;;
66384;SDS011;53426;55.872;37.462;2023-02-03T00:12:02;40.53;;;21.00;;
66384;SDS011;53426;55.872;37.462;2023-02-03T00:14:35;35.00;;;20.40;;
66384;SDS011;53426;55.872;37.462;2023-02-03T00:17:06;40.40;;;18.67;;
66384;SDS011;53426;55.872;37.462;2023-02-03T00:19:37;39.15;;;20.88;;
66384;SDS011;53426;55.872;37.462;2023-02-03T00:22:10;37.03;;;19.23;;
66384;SDS011;53426;55.872;37.462;2023-02-03T00:24:39;36.17;;;20.35;;
66384;SDS011;53426;55.872;37.462;2023-02-03T00:27:05;35.60;;;19.25;;
66384;SDS011;53426;55.872;37.462;2023-02-03T00:29:37;35.00;;;21.00;;
66384;SDS011;53426;55.872;37.462;2023-02-03T00:32:09;38.10;;;20.35;;
66384;SDS011;53426;55.872;37.462;2023-02-03T00:34:35;37.33;;;20.60;;
66384;SDS011;53426;55.872;37.462;2023-02-03T00:37:01;38.17;;;19.60;;
66384;SDS011;53426;55.872;37.462;2023-02-03T00:39:27;39.58;;;20.90;;
66384;SDS011;53426;55.872;37.462;2023-02-03T00:41:52;36.03;;;20.77;;
66384;SDS011;53426;55.872;37.462;2023-02-03T00:44:18;33.88;;;18.35;;
66384;SDS011;53426;55.872;37.462;2023-02-03T00:46:44;33.35;;;18.90;;
66384;SDS011;53426;55.872;37.462;2023-02-03T00:49:10;35.33;;;20.33;;
66384;SDS011;53426;55.872;37.462;2023-02-03T00:51:35;38.70;;;19.90;;
66384;SDS011;53426;55.872;37.462;2023-02-03T00:54:01;31.35;;;19.02;;
66384;SDS011;53426;55.872;37.462;2023-02-03T00:56:28;38.70;;;19.67;;
66384;SDS011;53426;55.872;37.462;2023-02-03T00:58:54;33.28;;;18.23;;
66384;SDS011;53426;55.872;37.462;2023-02-03T01:01:30;32.70;;;18.13;;
66384;SDS011;53426;55.872;37.462;2023-02-03T01:03:59;41.88;;;20.00;;
66384;SDS011;53426;55.872;37.462;2023-02-03T01:06:27;43.55;;;21.35;;
66384;SDS011;53426;55.872;37.462;2023-02-03T01:08:56;38.78;;;20.13;;
66384;SDS011;53426;55.872;37.462;2023-02-03T01:11:26;38.15;;;19.33;;
66384;SDS011;53426;55.872;37.462;2023-02-03T01:13:56;30.90;;;16.60;;
66384;SDS011;53426;55.872;37.462;2023-02-03T01:16:28;36.58;;;19.33;;
66384;SDS011;53426;55.872;37.462;2023-02-03T01:19:01;33.78;;;17.90;;
66384;SDS011;53426;55.872;37.462;2023-02-03T01:21:32;35.85;;;19.45;;
66384;SDS011;53426;55.872;37.462;2023-02-03T01:24:02;34.00;;;18.35;;
66384;SDS011;53426;55.872;37.462;2023-02-03T01:26:29;32.58;;;18.67;;
66384;SDS011;53426;55.872;37.462;2023-02-03T01:29:01;39.95;;;20.90;;
66384;SDS011;53426;55.872;37.462;2023-02-03T01:31:33;39.05;;;19.05;;
66384;SDS011;53426;55.872;37.462;2023-02-03T01:34:07;44.50;;;19.98;;
66384;SDS011;53426;55.872;37.462;2023-02-03T01:36:38;35.05;;;20.10;;
66384;SDS011;53426;55.872;37.462;2023-02-03T01:39:04;38.65;;;19.65;;
66384;SDS011;53426;55.872;37.462;2023-02-03T01:41:34;40.55;;;18.08;;
66384;SDS011;53426;55.872;37.462;2023-02-03T01:52:40;39.80;;;20.27;;
66384;SDS011;53426;55.872;37.462;2023-02-03T01:55:09;34.17;;;19.27;;
66384;SDS011;53426;55.872;37.462;2023-02-03T01:57:51;36.43;;;19.70;;
66384;SDS011;53426;55.872;37.462;2023-02-03T02:00:24;41.10;;;19.70;;
66384;SDS011;53426;55.872;37.462;2023-02-03T02:02:53;40.15;;;20.27;;
66384;SDS011;53426;55.872;37.462;2023-02-03T02:05:24;42.53;;;19.63;;
66384;SDS011;53426;55.872;37.462;2023-02-03T02:07:54;43.08;;;21.63;;
66384;SDS011;53426;55.872;37.462;2023-02-03T02:10:22;38.58;;;18.23;;
66384;SDS011;53426;55.872;37.462;2023-02-03T02:12:50;43.88;;;19.67;;
66384;SDS011;53426;55.872;37.462;2023-02-03T02:15:22;41.00;;;19.75;;
66384;SDS011;53426;55.872;37.462;2023-02-03T02:18:13;36.13;;;18.13;;
66384;SDS011;53426;55.872;37.462;2023-02-03T02:23:55;40.92;;;19.38;;
66384;SDS011;53426;55.872;37.462;2023-02-03T02:32:19;40.63;;;18.77;;
66384;SDS011;53426;55.872;37.462;2023-02-03T02:35:12;32.55;;;19.70;;
66384;SDS011;53426;55.872;37.462;2023-02-03T02:41:02;39.67;;;19.77;;
66384;SDS011;53426;55.872;37.462;2023-02-03T02:48:38;42.58;;;21.65;;
66384;SDS011;53426;55.872;37.462;2023-02-03T02:51:12;37.85;;;18.75;;
66384;SDS011;53426;55.872;37.462;2023-02-03T02:53:41;41.92;;;20.77;;
66384;SDS011;53426;55.872;37.462;2023-02-03T02:56:12;43.38;;;20.38;;
66384;SDS011;53426;55.872;37.462;2023-02-03T02:58:40;40.85;;;21.65;;
66384;SDS011;53426;55.872;37.462;2023-02-03T03:01:08;35.67;;;18.13;;
66384;SDS011;53426;55.872;37.462;2023-02-03T03:03:36;48.10;;;20.13;;
66384;SDS011;53426;55.872;37.462;2023-02-03T03:06:07;42.55;;;19.17;;
66384;SDS011;53426;55.872;37.462;2023-02-03T03:08:51;45.45;;;19.85;;
66384;SDS011;53426;55.872;37.462;2023-02-03T03:11:23;38.35;;;19.45;;
66384;SDS011;53426;55.872;37.462;2023-02-03T03:13:57;41.67;;;19.92;;
66384;SDS011;53426;55.872;37.462;2023-02-03T03:16:25;39.33;;;20.23;;
66384;SDS011;53426;55.872;37.462;2023-02-03T03:18:57;48.35;;;20.67;;
66384;SDS011;53426;55.872;37.462;2023-02-03T03:21:31;39.08;;;18.38;;
66384;SDS011;53426;55.872;37.462;2023-02-03T03:29:25;33.35;;;17.27;;
66384;SDS011;53426;55.872;37.462;2023-02-03T03:32:00;44.42;;;20.20;;
66384;SDS011;53426;55.872;37.462;2023-02-03T03:34:27;40.40;;;19.50;;
66384;SDS011;53426;55.872;37.462;2023-02-03T03:37:11;43.42;;;22.30;;
66384;SDS011;53426;55.872;37.462;2023-02-03T03:39:55;37.85;;;19.00;;
66384;SDS011;53426;55.872;37.462;2023-02-03T03:42:25;44.67;;;20.17;;
66384;SDS011;53426;55.872;37.462;2023-02-03T03:44:56;43.78;;;20.50;;
66384;SDS011;53426;55.872;37.462;2023-02-03T03:50:33;38.53;;;20.90;;
66384;SDS011;53426;55.872;37.462;2023-02-03T03:53:06;40.83;;;18.77;;
66384;SDS011;53426;55.872;37.462;2023-02-03T03:55:34;41.38;;;20.38;;
66384;SDS011;53426;55.872;37.462;2023-02-03T03:58:03;40.60;;;20.73;;
66384;SDS011;53426;55.872;37.462;2023-02-03T04:00:33;44.03;;;18.10;;
66384;SDS011;53426;55.872;37.462;2023-02-03T04:03:04;39.47;;;20.25;;
66384;SDS011;53426;55.872;37.462;2023-02-03T04:05:40;32.28;;;16.02;;
66384;SDS011;53426;55.872;37.462;2023-02-03T04:08:08;39.05;;;19.92;;
66384;SDS011;53426;55.872;37.462;2023-02-03T04:10:35;40.03;;;20.30;;
66384;SDS011;53426;55.872;37.462;2023-02-03T04:13:05;35.40;;;18.73;;
66384;SDS011;53426;55.872;37.462;2023-02-03T04:15:34;35.95;;;18.92;;
66384;SDS011;53426;55.872;37.462;2023-02-03T04:18:06;42.58;;;20.48;;
66384;SDS011;53426;55.872;37.462;2023-02-03T04:20:32;39.83;;;20.40;;
66384;SDS011;53426;55.872;37.462;2023-02-03T04:22:58;32.72;;;17.77;;
66384;SDS011;53426;55.872;37.462;2023-02-03T04:25:29;36.17;;;17.85;;
66384;SDS011;53426;55.872;37.462;2023-02-03T04:28:00;33.33;;;17.45;;
66384;SDS011;53426;55.872;37.462;2023-02-03T04:30:30;30.67;;;17.40;;
66384;SDS011;53426;55.872;37.462;2023-02-03T04:32:56;34.78;;;18.83;;
66384;SDS011;53426;55.872;37.462;2023-02-03T04:35:29;38.20;;;17.77;;
66384;SDS011;53426;55.872;37.462;2023-02-03T04:38:00;34.58;;;16.77;;
66384;SDS011;53426;55.872;37.462;2023-02-03T04:40:31;34.55;;;16.92;;
66384;SDS011;53426;55.872;37.462;2023-02-03T04:43:05;34.17;;;19.02;;
66384;SDS011;53426;55.872;37.462;2023-02-03T04:45:36;39.03;;;18.42;;
66384;SDS011;53426;55.872;37.462;2023-02-03T04:48:08;38.80;;;19.48;;
66384;SDS011;53426;55.872;37.462;2023-02-03T04:50:38;33.45;;;18.77;;
66384;SDS011;53426;55.872;37.462;2023-02-03T04:53:08;33.83;;;17.80;;
66384;SDS011;53426;55.872;37.462;2023-02-03T04:55:36;38.63;;;18.08;;
66384;SDS011;53426;55.872;37.462;2023-02-03T04:58:07;38.20;;;19.90;;
66384;SDS011;53426;55.872;37.462;2023-02-03T05:00:39;39.88;;;17.02;;
66384;SDS011;53426;55.872;37.462;2023-02-03T05:03:09;40.35;;;19.50;;
66384;SDS011;53426;55.872;37.462;2023-02-03T05:05:40;31.80;;;16.92;;
66384;SDS011;53426;55.872;37.462;2023-02-03T05:08:10;37.90;;;18.17;;
66384;SDS011;53426;55.872;37.462;2023-02-03T05:10:36;36.45;;;17.65;;
66384;SDS011;53426;55.872;37.462;2023-02-03T05:13:06;32.85;;;17.15;;
66384;SDS011;53426;55.872;37.462;2023-02-03T05:15:37;37.20;;;18.05;;
66384;SDS011;53426;55.872;37.462;2023-02-03T05:18:09;32.45;;;14.93;;
66384;SDS011;53426;55.872;37.462;2023-02-03T05:20:35;35.50;;;16.17;;
66384;SDS011;53426;55.872;37.462;2023-02-03T05:23:00;34.03;;;15.77;;
66384;SDS011;53426;55.872;37.462;2023-02-03T05:25:29;30.33;;;15.27;;
66384;SDS011;53426;55.872;37.462;2023-02-03T05:27:56;31.83;;;16.58;;
66384;SDS011;53426;55.872;37.462;2023-02-03T05:30:23;33.85;;;17.20;;
66384;SDS011;53426;55.872;37.462;2023-02-03T05:32:51;40.45;;;19.10;;
66384;SDS011;53426;55.872;37.462;2023-02-03T05:35:21;36.10;;;16.40;;
66384;SDS011;53426;55.872;37.462;2023-02-03T05:37:53;35.75;;;17.77;;
66384;SDS011;53426;55.872;37.462;2023-02-03T05:40:25;32.67;;;15.20;;
66384;SDS011;53426;55.872;37.462;2023-02-03T05:43:11;26.55;;;14.88;;
66384;SDS011;53426;55.872;37.462;2023-02-03T05:45:39;29.92;;;14.40;;
66384;SDS011;53426;55.872;37.462;2023-02-03T05:48:10;30.02;;;15.27;;
66384;SDS011;53426;55.872;37.462;2023-02-03T05:50:38;28.38;;;14.63;;
66384;SDS011;53426;55.872;37.462;2023-02-03T05:53:08;29.08;;;15.73;;
66384;SDS011;53426;55.872;37.462;2023-02-03T05:55:34;27.45;;;14.43;;
66384;SDS011;53426;55.872;37.462;2023-02-03T05:58:00;28.30;;;14.70;;
66384;SDS011;53426;55.872;37.462;2023-02-03T06:00:26;25.10;;;13.43;;
66384;SDS011;53426;55.872;37.462;2023-02-03T06:02:53;27.65;;;15.43;;
66384;SDS011;53426;55.872;37.462;2023-02-03T06:05:21;29.67;;;14.93;;
66384;SDS011;53426;55.872;37.462;2023-02-03T06:07:48;25.13;;;14.98;;
66384;SDS011;53426;55.872;37.462;2023-02-03T06:10:14;28.33;;;15.60;;
66384;SDS011;53426;55.872;37.462;2023-02-03T06:12:41;27.58;;;15.75;;
66384;SDS011;53426;55.872;37.462;2023-02-03T06:15:09;27.15;;;14.50;;
66384;SDS011;53426;55.872;37.462;2023-02-03T06:17:35;25.75;;;13.80;;
66384;SDS011;53426;55.872;37.462;2023-02-03T06:20:05;31.60;;;15.35;;
66384;SDS011;53426;55.872;37.462;2023-02-03T06:22:32;31.45;;;15.05;;
66384;SDS011;53426;55.872;37.462;2023-02-03T06:24:58;25.45;;;14.10;;
66384;SDS011;53426;55.872;37.462;2023-02-03T06:27:24;27.60;;;15.30;;
66384;SDS011;53426;55.872;37.462;2023-02-03T06:29:50;26.20;;;14.55;;
66384;SDS011;53426;55.872;37.462;2023-02-03T06:32:15;26.67;;;14.65;;
66384;SDS011;53426;55.872;37.462;2023-02-03T06:34:41;27.13;;;14.45;;
66384;SDS011;53426;55.872;37.462;2023-02-03T06:37:07;26.40;;;14.93;;
66384;SDS011;53426;55.872;37.462;2023-02-03T06:39:33;26.52;;;14.48;;
66384;SDS011;53426;55.872;37.462;2023-02-03T06:41:59;34.10;;;15.05;;
66384;SDS011;53426;55.872;37.462;2023-02-03T06:44:25;26.48;;;12.57;;
66384;SDS011;53426;55.872;37.462;2023-02-03T06:46:51;28.75;;;14.07;;
66384;SDS011;53426;55.872;37.462;2023-02-03T06:49:17;26.48;;;14.05;;
66384;SDS011;53426;55.872;37.462;2023-02-03T06:51:43;31.80;;;14.88;;
66384;SDS011;53426;55.872;37.462;2023-02-03T06:54:11;22.10;;;13.48;;
66384;SDS011;53426;55.872;37.462;2023-02-03T06:56:37;23.65;;;13.77;;
66384;SDS011;53426;55.872;37.462;2023-02-03T06:59:03;29.08;;;15.02;;
66384;SDS011;53426;55.872;37.462;2023-02-03T07:01:29;25.45;;;13.32;;
66384;SDS011;53426;55.872;37.462;2023-02-03T07:03:56;30.05;;;15.60;;
66384;SDS011;53426;55.872;37.462;2023-02-03T07:06:23;30.25;;;14.20;;
66384;SDS011;53426;55.872;37.462;2023-02-03T07:08:54;27.58;;;14.18;;
66384;SDS011;53426;55.872;37.462;2023-02-03T07:11:20;27.13;;;13.88;;
66384;SDS011;53426;55.872;37.462;2023-02-03T07:13:49;24.80;;;13.43;;
66384;SDS011;53426;55.872;37.462;2023-02-03T07:16:15;25.10;;;13.82;;
66384;SDS011;53426;55.872;37.462;2023-02-03T07:18:42;25.00;;;12.82;;
66384;SDS011;53426;55.872;37.462;2023-02-03T07:21:08;28.38;;;14.27;;
66384;SDS011;53426;55.872;37.462;2023-02-03T07:23:35;25.55;;;15.50;;
66384;SDS011;53426;55.872;37.462;2023-02-03T07:26:01;27.50;;;14.23;;
66384;SDS011;53426;55.872;37.462;2023-02-03T07:28:29;25.65;;;13.80;;
66384;SDS011;53426;55.872;37.462;2023-02-03T07:30:55;22.08;;;13.98;;
66384;SDS011;53426;55.872;37.462;2023-02-03T07:33:21;30.80;;;14.00;;
66384;SDS011;53426;55.872;37.462;2023-02-03T07:35:53;24.77;;;13.73;;
66384;SDS011;53426;55.872;37.462;2023-02-03T07:38:20;18.25;;;11.32;;
66384;SDS011;53426;55.872;37.462;2023-02-03T07:40:48;27.13;;;13.63;;
66384;SDS011;53426;55.872;37.462;2023-02-03T07:43:16;21.30;;;12.60;;
66384;SDS011;53426;55.872;37.462;2023-02-03T07:45:45;21.35;;;12.48;;
66384;SDS011;53426;55.872;37.462;2023-02-03T07:48:14;22.92;;;13.30;;
66384;SDS011;53426;55.872;37.462;2023-02-03T07:50:40;20.48;;;13.30;;
66384;SDS011;53426;55.872;37.462;2023-02-03T07:53:06;20.95;;;13.65;;
66384;SDS011;53426;55.872;37.462;2023-02-03T07:55:37;22.38;;;12.30;;
66384;SDS011;53426;55.872;37.462;2023-02-03T07:58:06;28.55;;;14.27;;
66384;SDS011;53426;55.872;37.462;2023-02-03T08:00:37;24.40;;;14.75;;
66384;SDS011;53426;55.872;37.462;2023-02-03T08:03:05;20.08;;;12.75;;
66384;SDS011;53426;55.872;37.462;2023-02-03T08:05:37;25.42;;;14.63;;
66384;SDS011;53426;55.872;37.462;2023-02-03T08:08:07;23.55;;;13.48;;
66384;SDS011;53426;55.872;37.462;2023-02-03T08:10:32;23.33;;;13.38;;
66384;SDS011;53426;55.872;37.462;2023-02-03T08:12:58;23.00;;;12.95;;
66384;SDS011;53426;55.872;37.462;2023-02-03T08:15:26;23.55;;;13.07;;
66384;SDS011;53426;55.872;37.462;2023-02-03T08:17:51;17.33;;;9.93;;
66384;SDS011;53426;55.872;37.462;2023-02-03T08:20:17;16.55;;;10.98;;
66384;SDS011;53426;55.872;37.462;2023-02-03T08:22:43;22.45;;;12.20;;
66384;SDS011;53426;55.872;37.462;2023-02-03T08:25:10;23.73;;;11.82;;
66384;SDS011;53426;55.872;37.462;2023-02-03T08:27:36;19.67;;;12.07;;
66384;SDS011;53426;55.872;37.462;2023-02-03T08:30:03;20.20;;;11.85;;
66384;SDS011;53426;55.872;37.462;2023-02-03T08:32:31;18.27;;;10.60;;
66384;SDS011;53426;55.872;37.462;2023-02-03T08:34:59;20.23;;;11.45;;
66384;SDS011;53426;55.872;37.462;2023-02-03T08:37:25;23.75;;;12.50;;
66384;SDS011;53426;55.872;37.462;2023-02-03T08:39:52;20.92;;;11.73;;
66384;SDS011;53426;55.872;37.462;2023-02-03T08:42:18;18.02;;;11.88;;
66384;SDS011;53426;55.872;37.462;2023-02-03T08:44:44;21.25;;;12.45;;
66384;SDS011;53426;55.872;37.462;2023-02-03T08:47:11;20.65;;;11.98;;
66384;SDS011;53426;55.872;37.462;2023-02-03T08:49:37;20.05;;;11.48;;
66384;SDS011;53426;55.872;37.462;2023-02-03T08:52:10;22.80;;;11.45;;
66384;SDS011;53426;55.872;37.462;2023-02-03T08:54:39;18.63;;;10.65;;
66384;SDS011;53426;55.872;37.462;2023-02-03T08:57:05;20.85;;;13.18;;
66384;SDS011;53426;55.872;37.462;2023-02-03T08:59:31;23.65;;;12.52;;
66384;SDS011;53426;55.872;37.462;2023-02-03T09:02:01;21.02;;;11.82;;
66384;SDS011;53426;55.872;37.462;2023-02-03T09:04:31;20.83;;;12.55;;
66384;SDS011;53426;55.872;37.462;2023-02-03T09:06:58;18.85;;;11.65;;
66384;SDS011;53426;55.872;37.462;2023-02-03T09:09:27;24.83;;;13.43;;
66384;SDS011;53426;55.872;37.462;2023-02-03T09:11:56;19.63;;;12.32;;
66384;SDS011;53426;55.872;37.462;2023-02-03T09:14:27;24.30;;;12.48;;
66384;SDS011;53426;55.872;37.462;2023-02-03T09:16:53;26.98;;;14.02;;
66384;SDS011;53426;55.872;37.462;2023-02-03T09:19:19;20.35;;;12.07;;
66384;SDS011;53426;55.872;37.462;2023-02-03T09:21:45;22.42;;;12.25;;
66384;SDS011;53426;55.872;37.462;2023-02-03T09:24:14;28.42;;;13.88;;
66384;SDS011;53426;55.872;37.462;2023-02-03T09:26:40;26.55;;;13.68;;
66384;SDS011;53426;55.872;37.462;2023-02-03T09:29:05;24.88;;;13.98;;
66384;SDS011;53426;55.872;37.462;2023-02-03T09:31:32;25.75;;;13.60;;
66384;SDS011;53426;55.872;37.462;2023-02-03T09:33:58;26.10;;;14.30;;
66384;SDS011;53426;55.872;37.462;2023-02-03T09:36:25;26.05;;;14.23;;
66384;SDS011;53426;55.872;37.462;2023-02-03T09:38:51;21.00;;;11.88;;
66384;SDS011;53426;55.872;37.462;2023-02-03T09:46:59;26.77;;;13.48;;
66384;SDS011;53426;55.872;37.462;2023-02-03T09:52:36;24.48;;;14.60;;
66384;SDS011;53426;55.872;37.462;2023-02-03T09:55:15;22.98;;;13.43;;
66384;SDS011;53426;55.872;37.462;2023-02-03T10:16:43;24.77;;;13.75;;
66384;SDS011;53426;55.872;37.462;2023-02-03T10:19:30;23.27;;;13.50;;
66384;SDS011;53426;55.872;37.462;2023-02-03T10:22:02;18.75;;;11.23;;
66384;SDS011;53426;55.872;37.462;2023-02-03T10:27:04;19.47;;;10.77;;
66384;SDS011;53426;55.872;37.462;2023-02-03T10:29:40;19.42;;;11.77;;
66384;SDS011;53426;55.872;37.462;2023-02-03T10:32:10;16.40;;;10.52;;
66384;SDS011;53426;55.872;37.462;2023-02-03T10:34:37;22.08;;;10.93;;
66384;SDS011;53426;55.872;37.462;2023-02-03T10:39:50;21.52;;;12.25;;
66384;SDS011;53426;55.872;37.462;2023-02-03T10:42:17;18.13;;;10.65;;
66384;SDS011;53426;55.872;37.462;2023-02-03T10:44:59;20.50;;;11.85;;
66384;SDS011;53426;55.872;37.462;2023-02-03T10:47:32;18.35;;;10.70;;
66384;SDS011;53426;55.872;37.462;2023-02-03T10:50:08;19.27;;;11.02;;
66384;SDS011;53426;55.872;37.462;2023-02-03T10:52:42;18.67;;;11.43;;
66384;SDS011;53426;55.872;37.462;2023-02-03T10:55:29;24.25;;;13.38;;
66384;SDS011;53426;55.872;37.462;2023-02-03T10:57:55;22.95;;;13.07;;
66384;SDS011;53426;55.872;37.462;2023-02-03T11:00:28;20.42;;;12.35;;
66384;SDS011;53426;55.872;37.462;2023-02-03T11:03:04;23.00;;;12.70;;
66384;SDS011;53426;55.872;37.462;2023-02-03T11:05:34;25.38;;;13.48;;
66384;SDS011;53426;55.872;37.462;2023-02-03T11:08:12;24.65;;;11.45;;
66384;SDS011;53426;55.872;37.462;2023-02-03T11:10:41;19.33;;;11.15;;
66384;SDS011;53426;55.872;37.462;2023-02-03T11:13:23;20.88;;;11.32;;
66384;SDS011;53426;55.872;37.462;2023-02-03T11:15:52;23.02;;;12.98;;
66384;SDS011;53426;55.872;37.462;2023-02-03T11:20:59;21.35;;;12.38;;
66384;SDS011;53426;55.872;37.462;2023-02-03T11:23:33;16.73;;;11.00;;
66384;SDS011;53426;55.872;37.462;2023-02-03T11:26:11;16.55;;;10.65;;
66384;SDS011;53426;55.872;37.462;2023-02-03T11:28:43;23.92;;;11.52;;
66384;SDS011;53426;55.872;37.462;2023-02-03T11:31:16;20.30;;;11.45;;
66384;SDS011;53426;55.872;37.462;2023-02-03T11:33:49;20.80;;;12.25;;
66384;SDS011;53426;55.872;37.462;2023-02-03T11:36:21;20.30;;;12.50;;
66384;SDS011;53426;55.872;37.462;2023-02-03T11:38:52;18.17;;;11.52;;
66384;SDS011;53426;55.872;37.462;2023-02-03T11:41:37;24.02;;;12.10;;
66384;SDS011;53426;55.872;37.462;2023-02-03T11:44:37;16.98;;;11.10;;
66384;SDS011;53426;55.872;37.462;2023-02-03T11:47:06;19.48;;;11.75;;
66384;SDS011;53426;55.872;37.462;2023-02-03T12:01:00;18.02;;;11.13;;
66384;SDS011;53426;55.872;37.462;2023-02-03T12:04:00;18.50;;;11.68;;
66384;SDS011;53426;55.872;37.462;2023-02-03T12:06:53;20.58;;;11.95;;
66384;SDS011;53426;55.872;37.462;2023-02-03T12:20:57;23.58;;;11.70;;
66384;SDS011;53426;55.872;37.462;2023-02-03T12:24:06;18.08;;;11.00;;
66384;SDS011;53426;55.872;37.462;2023-02-03T12:26:45;17.15;;;11.23;;
66384;SDS011;53426;55.872;37.462;2023-02-03T12:29:52;16.98;;;12.05;;
66384;SDS011;53426;55.872;37.462;2023-02-03T12:34:55;18.23;;;11.15;;
66384;SDS011;53426;55.872;37.462;2023-02-03T12:37:48;16.55;;;11.20;;
66384;SDS011;53426;55.872;37.462;2023-02-03T12:45:50;15.10;;;10.75;;
66384;SDS011;53426;55.872;37.462;2023-02-03T12:48:26;18.60;;;11.45;;
66384;SDS011;53426;55.872;37.462;2023-02-03T12:51:20;16.70;;;10.88;;
66384;SDS011;53426;55.872;37.462;2023-02-03T12:53:57;15.20;;;10.15;;
66384;SDS011;53426;55.872;37.462;2023-02-03T12:56:46;17.27;;;11.35;;
66384;SDS011;53426;55.872;37.462;2023-02-03T12:59:19;18.75;;;10.77;;
66384;SDS011;53426;55.872;37.462;2023-02-03T13:01:57;18.88;;;11.07;;
66384;SDS011;53426;55.872;37.462;2023-02-03T13:12:55;21.77;;;10.23;;
66384;SDS011;53426;55.872;37.462;2023-02-03T13:15:31;14.60;;;9.20;;
66384;SDS011;53426;55.872;37.462;2023-02-03T13:20:52;15.52;;;10.20;;
66384;SDS011;53426;55.872;37.462;2023-02-03T13:23:24;14.63;;;9.95;;
66384;SDS011;53426;55.872;37.462;2023-02-03T13:34:48;21.13;;;10.60;;
66384;SDS011;53426;55.872;37.462;2023-02-03T13:42:39;14.43;;;9.88;;
66384;SDS011;53426;55.872;37.462;2023-02-03T13:48:26;17.55;;;10.65;;
66384;SDS011;53426;55.872;37.462;2023-02-03T13:53:48;17.33;;;9.98;;
66384;SDS011;53426;55.872;37.462;2023-02-03T13:56:26;16.65;;;10.98;;
66384;SDS011;53426;55.872;37.462;2023-02-03T14:01:40;17.20;;;10.70;;
66384;SDS011;53426;55.872;37.462;2023-02-03T14:04:07;18.90;;;10.55;;
66384;SDS011;53426;55.872;37.462;2023-02-03T14:07:00;20.23;;;11.32;;
66384;SDS011;53426;55.872;37.462;2023-02-03T14:12:30;16.05;;;10.82;;
66384;SDS011;53426;55.872;37.462;2023-02-03T14:14:55;20.20;;;11.73;;
66384;SDS011;53426;55.872;37.462;2023-02-03T14:22:58;23.95;;;12.55;;
66384;SDS011;53426;55.872;37.462;2023-02-03T14:25:25;19.67;;;12.18;;
66384;SDS011;53426;55.872;37.462;2023-02-03T14:28:01;15.95;;;10.95;;
66384;SDS011;53426;55.872;37.462;2023-02-03T14:30:30;18.40;;;10.48;;
66384;SDS011;53426;55.872;37.462;2023-02-03T14:32:57;19.83;;;12.23;;
66384;SDS011;53426;55.872;37.462;2023-02-03T14:35:29;26.45;;;12.35;;
66384;SDS011;53426;55.872;37.462;2023-02-03T14:37:59;24.15;;;11.77;;
66384;SDS011;53426;55.872;37.462;2023-02-03T14:40:39;20.73;;;12.65;;
66384;SDS011;53426;55.872;37.462;2023-02-03T14:45:50;22.33;;;12.30;;
66384;SDS011;53426;55.872;37.462;2023-02-03T14:48:44;20.40;;;13.05;;
66384;SDS011;53426;55.872;37.462;2023-02-03T14:54:12;24.80;;;13.02;;
66384;SDS011;53426;55.872;37.462;2023-02-03T14:59:27;22.85;;;13.18;;
66384;SDS011;53426;55.872;37.462;2023-02-03T15:04:27;22.67;;;12.82;;
66384;SDS011;53426;55.872;37.462;2023-02-03T15:06:53;24.73;;;12.88;;
66384;SDS011;53426;55.872;37.462;2023-02-03T15:09:21;41.08;;;14.38;;
66384;SDS011;53426;55.872;37.462;2023-02-03T15:11:55;20.20;;;12.63;;
66384;SDS011;53426;55.872;37.462;2023-02-03T15:14:23;34.20;;;15.93;;
66384;SDS011;53426;55.872;37.462;2023-02-03T15:16:54;20.25;;;12.88;;
66384;SDS011;53426;55.872;37.462;2023-02-03T15:19:24;29.20;;;13.93;;
66384;SDS011;53426;55.872;37.462;2023-02-03T15:21:52;30.05;;;14.13;;
66384;SDS011;53426;55.872;37.462;2023-02-03T15:24:18;28.55;;;13.70;;
66384;SDS011;53426;55.872;37.462;2023-02-03T15:26:49;28.27;;;14.15;;
66384;SDS011;53426;55.872;37.462;2023-02-03T15:29:21;29.80;;;13.95;;
66384;SDS011;53426;55.872;37.462;2023-02-03T15:31:59;22.38;;;13.43;;
66384;SDS011;53426;55.872;37.462;2023-02-03T15:40:01;21.98;;;13.18;;
66384;SDS011;53426;55.872;37.462;2023-02-03T15:45:06;26.45;;;13.60;;
66384;SDS011;53426;55.872;37.462;2023-02-03T15:47:51;21.60;;;13.82;;
66384;SDS011;53426;55.872;37.462;2023-02-03T15:50:32;27.65;;;14.80;;
66384;SDS011;53426;55.872;37.462;2023-02-03T15:53:04;26.08;;;13.63;;
66384;SDS011;53426;55.872;37.462;2023-02-03T15:55:35;22.67;;;12.68;;
66384;SDS011;53426;55.872;37.462;2023-02-03T16:00:57;22.35;;;13.05;;
66384;SDS011;53426;55.872;37.462;2023-02-03T16:03:27;22.90;;;13.70;;
66384;SDS011;53426;55.872;37.462;2023-02-03T16:08:52;20.45;;;12.20;;
66384;SDS011;53426;55.872;37.462;2023-02-03T16:11:36;24.35;;;14.50;;
66384;SDS011;53426;55.872;37.462;2023-02-03T16:14:03;23.80;;;13.13;;
66384;SDS011;53426;55.872;37.462;2023-02-03T16:16:39;22.35;;;13.00;;
66384;SDS011;53426;55.872;37.462;2023-02-03T16:19:16;29.73;;;14.65;;
66384;SDS011;53426;55.872;37.462;2023-02-03T16:32:36;22.95;;;12.75;;
66384;SDS011;53426;55.872;37.462;2023-02-03T16:35:21;25.05;;;13.02;;
66384;SDS011;53426;55.872;37.462;2023-02-03T16:38:14;23.75;;;13.25;;
66384;SDS011;53426;55.872;37.462;2023-02-03T16:41:02;25.92;;;13.65;;
66384;SDS011;53426;55.872;37.462;2023-02-03T16:43:57;20.15;;;10.95;;
66384;SDS011;53426;55.872;37.462;2023-02-03T16:46:41;25.73;;;12.02;;
66384;SDS011;53426;55.872;37.462;2023-02-03T16:49:28;18.25;;;11.98;;
66384;SDS011;53426;55.872;37.462;2023-02-03T16:52:13;20.13;;;9.90;;
66384;SDS011;53426;55.872;37.462;2023-02-03T16:54:45;24.98;;;11.77;;
66384;SDS011;53426;55.872;37.462;2023-02-03T16:57:11;18.50;;;10.95;;
66384;SDS011;53426;55.872;37.462;2023-02-03T16:59:37;15.23;;;9.50;;
66384;SDS011;53426;55.872;37.462;2023-02-03T17:02:03;17.33;;;11.85;;
66384;SDS011;53426;55.872;37.462;2023-02-03T17:04:29;11.40;;;7.50;;
66384;SDS011;53426;55.872;37.462;2023-02-03T17:06:55;11.07;;;9.05;;
66384;SDS011;53426;55.872;37.462;2023-02-03T17:09:20;8.80;;;6.28;;
66384;SDS011;53426;55.872;37.462;2023-02-03T17:11:49;10.07;;;5.97;;
66384;SDS011;53426;55.872;37.462;2023-02-03T17:14:15;10.15;;;6.63;;
66384;SDS011;53426;55.872;37.462;2023-02-03T17:16:41;11.68;;;6.60;;
66384;SDS011;53426;55.872;37.462;2023-02-03T17:19:12;14.30;;;7.40;;
66384;SDS011;53426;55.872;37.462;2023-02-03T17:21:41;10.60;;;6.82;;
66384;SDS011;53426;55.872;37.462;2023-02-03T17:24:07;12.30;;;6.72;;
66384;SDS011;53426;55.872;37.462;2023-02-03T17:26:33;9.38;;;6.68;;
66384;SDS011;53426;55.872;37.462;2023-02-03T17:28:58;11.10;;;7.38;;
66384;SDS011;53426;55.872;37.462;2023-02-03T17:31:27;9.90;;;7.30;;